WetterOnline ( https://www.wetteronline.de )

Wetter aktuell Battinsthal

Aktuelles Wetter: Grünow (57m)

6-stündlich | Neueste Meldungen
Ortszeit Temperatur Wetter
Di, 12.11. 7:00 1.9° C bedeckt
Di, 12.11. 1:00 1.5° C wolkig
Mo, 11.11. 19:00 3.3° C leicht bewölkt
Mo, 11.11. 13:00 3.7° C bewölkt
Mo, 11.11. 7:00 3.0° C bedeckt
Mo, 11.11. 1:00 3.1° C bedeckt
So, 10.11. 19:00 2.5° C wolkig
So, 10.11. 13:00 5.4° C leicht bewölkt
Ortszeit Temperatur Wetter
Di, 12.11. 9:00 2.9° C bewölkt
Di, 12.11. 8:30 2.4° C bedeckt
Di, 12.11. 8:20 2.4° C bedeckt
Di, 12.11. 8:10 2.4° C bedeckt
Di, 12.11. 8:00 2.3° C bewölkt
Di, 12.11. 7:50 2.3° C bewölkt
Di, 12.11. 7:30 1.9° C bedeckt
Di, 12.11. 7:00 1.9° C bedeckt
Ortszeit Relative Feuchte Sichtweite
Di, 12.11. 7:00 92% 9 km
Di, 12.11. 1:00 91% 13 km
Mo, 11.11. 19:00 91% 10 km
Mo, 11.11. 13:00 91% 9 km
Mo, 11.11. 7:00 97% 3.9 km
Mo, 11.11. 1:00 97% 7 km
So, 10.11. 19:00 99% 2.4 km
So, 10.11. 13:00 90% 9 km
Ortszeit Relative Feuchte Sichtweite
Di, 12.11. 9:00 87% 13 km
Di, 12.11. 8:30 90% 11 km
Di, 12.11. 8:20 90% -
Di, 12.11. 8:10 90% -
Di, 12.11. 8:00 90% 11 km
Di, 12.11. 7:50 90% -
Di, 12.11. 7:30 93% 9 km
Di, 12.11. 7:00 92% 9 km
Ortszeit Niederschlagsmenge Niederschlagsart
Di, 12.11. 7:00 0.0 l/m2 in 12 Std. -
Di, 12.11. 1:00 0.0 l/m2 in 6 Std. -
Mo, 11.11. 19:00 0.0 l/m2 in 12 Std. -
Mo, 11.11. 13:00 0.0 l/m2 in 6 Std. -
Mo, 11.11. 7:00 0.0 l/m2 in 12 Std. -
Mo, 11.11. 1:00 0.0 l/m2 in 6 Std. -
So, 10.11. 19:00 0.0 l/m2 in 12 Std. -
So, 10.11. 13:00 0.0 l/m2 in 6 Std. -
Ortszeit Niederschlagsmenge Niederschlagsart
Di, 12.11. 9:00 0.0 l/m2 in 1 Std. -
Di, 12.11. 8:30 0.0 l/m2 in 1 Std. -
Di, 12.11. 8:20 keine Meldung -
Di, 12.11. 8:10 keine Meldung -
Di, 12.11. 8:00 0.0 l/m2 in 1 Std. -
Di, 12.11. 7:50 keine Meldung -
Di, 12.11. 7:30 0.0 l/m2 in 1 Std. -
Di, 12.11. 7:00 0.0 l/m2 in 1 Std. -
Ortszeit Stärke Spitze Richtung
km/h Bft. km/h Grad Sektor
Di, 12.11. 7:00 17 3 33 150° SO
Di, 12.11. 1:00 17 3 35 150° SO
Mo, 11.11. 19:00 20 4 31 140° SO
Mo, 11.11. 13:00 22 4 35 160° S
Mo, 11.11. 7:00 14 3 22 170° S
Mo, 11.11. 1:00 11 2 19 190° S
So, 10.11. 19:00 4 1 14 200° S
So, 10.11. 13:00 4 1 14 200° S
Ortszeit Stärke Spitze Richtung
km/h Bft. km/h Grad Sektor
Di, 12.11. 9:00 18 3 25 180° S
Di, 12.11. 8:30 18 3 25 170° S
Di, 12.11. 8:20 18 3 - 170° S
Di, 12.11. 8:10 17 3 - 170° S
Di, 12.11. 8:00 18 3 22 170° S
Di, 12.11. 7:50 18 3 - 170° S
Di, 12.11. 7:30 14 3 22 160° S
Di, 12.11. 7:00 17 3 26 150° SO
Ortszeit Untergrenze Bedeckung Gattung
total tief tief mittel hoch
Di, 12.11. 7:00 2100 m 8/8 8/8 - - -
Di, 12.11. 1:00 7500 m 8/8 0/8 - - -
Mo, 11.11. 19:00 10500 m 3/8 0/8 - - -
Mo, 11.11. 13:00 180 m 7/8 7/8 - - -
Mo, 11.11. 7:00 90 m 8/8 8/8 - - -
Mo, 11.11. 1:00 90 m 8/8 8/8 - - -
So, 10.11. 19:00 180 m 5/8 5/8 - - -
So, 10.11. 13:00 180 m 4/8 4/8 - - -
Ortszeit Bedeckungsgrad in Achtel und Wolkenuntergrenze
Di, 12.11. 9:00 6(1500m) 8(3000m)
Di, 12.11. 8:30 8(2700m) 8(5400m)
Di, 12.11. 8:20 8(2700m) 8(5400m)
Di, 12.11. 8:10 1(2400m) 8(2700m)
Di, 12.11. 8:00 7(2400m)
Di, 12.11. 7:50 7(2400m)
Di, 12.11. 7:30 5(2400m) 8(2700m)
Di, 12.11. 7:00 5(2100m) 8(2700m)
Ortszeit Luftdruck NN (hPa) Tendenz (hPa in 3 Std.)
Di, 12.11. 7:00 1006 - 0,1
Di, 12.11. 1:00 1006 - 1,1
Mo, 11.11. 19:00 1008 - 1,9
Mo, 11.11. 13:00 1012 - 1,5
Mo, 11.11. 7:00 1015 - 0,6
Mo, 11.11. 1:00 1016 - 0,3
So, 10.11. 19:00 1016 + 0,8
So, 10.11. 13:00 1014 + 0,9
Ortszeit Luftdruck NN (hPa) Tendenz (hPa in 3 Std.)
Di, 12.11. 9:00 1007 + 1,0
Di, 12.11. 8:30 1007 + 1,3
Di, 12.11. 8:20 1007 keine Meldung
Di, 12.11. 8:10 1006 keine Meldung
Di, 12.11. 8:00 1006 + 0,6
Di, 12.11. 7:50 1006 keine Meldung
Di, 12.11. 7:30 1006 + 0,4
Di, 12.11. 7:00 1006 - 0,1
Ortszeit Schneehöhe (cm)
Di, 12.11. 7:00 0
Di, 12.11. 1:00 0
Mo, 11.11. 19:00 0
Mo, 11.11. 13:00 0
Mo, 11.11. 7:00 0
Mo, 11.11. 1:00 0
So, 10.11. 19:00 0
So, 10.11. 13:00 0
Ortszeit Schneehöhe (cm)
Di, 12.11. 9:00 0
Di, 12.11. 8:30 0
Di, 12.11. 8:20 0
Di, 12.11. 8:10 0
Di, 12.11. 8:00 0
Di, 12.11. 7:50 0
Di, 12.11. 7:30 0
Di, 12.11. 7:00 0
Link zu dieser Seite / Seite empfehlen

Das Wetter in ...